createdAt,value
2017-04-20T00:00:20.643Z,0.00
2017-04-20T00:01:19.878Z,0.00
2017-04-20T00:02:19.043Z,0.10
2017-04-20T00:03:18.227Z,0.10
2017-04-20T00:04:17.446Z,0.10
2017-04-20T00:05:16.643Z,0.10
2017-04-20T00:06:15.806Z,0.10
2017-04-20T00:07:14.983Z,0.00
2017-04-20T00:08:14.125Z,0.00
2017-04-20T00:09:13.257Z,0.00
2017-04-20T00:10:12.417Z,0.00
2017-04-20T00:11:11.609Z,0.00
2017-04-20T00:12:10.785Z,0.00
2017-04-20T00:14:09.554Z,-0.10
2017-04-20T00:15:08.804Z,-0.10
2017-04-20T00:16:08.001Z,-0.10
2017-04-20T00:17:07.164Z,-0.10
2017-04-20T00:18:06.308Z,-0.10
2017-04-20T00:19:05.476Z,-0.10
2017-04-20T00:20:04.609Z,0.00
2017-04-20T00:21:03.845Z,-0.10
2017-04-20T00:22:02.992Z,-0.10
2017-04-20T00:23:02.161Z,-0.10
2017-04-20T00:24:01.376Z,-0.20
2017-04-20T00:25:00.587Z,-0.20
2017-04-20T00:25:59.748Z,-0.20
2017-04-20T00:26:58.910Z,-0.20
2017-04-20T00:27:58.157Z,-0.20
2017-04-20T00:28:57.279Z,-0.20
2017-04-20T00:29:57.253Z,-0.30
2017-04-20T00:30:56.484Z,-0.20
2017-04-20T00:31:55.628Z,-0.20
2017-04-20T00:32:54.767Z,-0.30
2017-04-20T00:33:53.920Z,-0.30
2017-04-20T00:34:53.069Z,-0.30
2017-04-20T00:35:52.297Z,-0.30
2017-04-20T00:36:51.453Z,-0.30
2017-04-20T00:37:50.596Z,-0.30
2017-04-20T00:38:49.722Z,-0.30
2017-04-20T00:39:48.884Z,-0.30
2017-04-20T00:40:48.047Z,-0.30
2017-04-20T00:41:47.967Z,-0.40
2017-04-20T00:42:47.124Z,-0.30
2017-04-20T00:43:46.188Z,-0.40
2017-04-20T00:44:45.340Z,-0.40
2017-04-20T00:45:44.540Z,-0.40
2017-04-20T00:46:43.990Z,-0.40
2017-04-20T00:47:43.137Z,-0.40
2017-04-20T00:48:42.285Z,-0.40
2017-04-20T00:49:41.468Z,-0.50
2017-04-20T00:50:40.628Z,-0.50
2017-04-20T00:51:39.746Z,-0.50
2017-04-20T00:52:38.927Z,-0.50
2017-04-20T00:53:38.090Z,-0.50
2017-04-20T00:54:37.225Z,-0.50
2017-04-20T00:55:36.454Z,-0.50
2017-04-20T00:56:35.600Z,-0.50
2017-04-20T00:57:34.761Z,-0.50
2017-04-20T00:58:33.136Z,-0.60
2017-04-20T00:59:32.304Z,-0.50
2017-04-20T01:00:31.474Z,-0.60
2017-04-20T01:01:30.641Z,-0.60
2017-04-20T01:02:29.789Z,-0.60
2017-04-20T01:03:28.944Z,-0.60
2017-04-20T01:04:28.115Z,-0.60
2017-04-20T01:05:27.231Z,-0.60
2017-04-20T01:06:27.148Z,-0.70
2017-04-20T01:07:26.323Z,-0.60
2017-04-20T01:08:25.497Z,-0.60
2017-04-20T01:09:24.697Z,-0.60
2017-04-20T01:10:23.844Z,-0.50
2017-04-20T01:11:22.990Z,-0.60
2017-04-20T01:12:22.161Z,-0.60
2017-04-20T01:13:22.123Z,-0.70
2017-04-20T01:14:21.280Z,-0.60
2017-04-20T01:15:20.395Z,-0.60
2017-04-20T01:16:19.520Z,-0.70
2017-04-20T01:17:19.461Z,-0.70
2017-04-20T01:18:19.037Z,-0.60
2017-04-20T01:19:18.336Z,-0.60
2017-04-20T01:20:17.496Z,-0.60
2017-04-20T01:21:16.663Z,-0.60
2017-04-20T01:22:15.863Z,-0.50
2017-04-20T01:23:15.005Z,-0.50
2017-04-20T01:24:14.214Z,-0.50
2017-04-20T01:25:13.352Z,-0.60
2017-04-20T01:26:12.484Z,-0.60
2017-04-20T01:27:11.654Z,-0.70
2017-04-20T01:28:11.236Z,-0.60
2017-04-20T01:29:10.452Z,-0.60
2017-04-20T01:30:09.603Z,-0.70
2017-04-20T01:31:08.793Z,-0.70
2017-04-20T01:32:07.961Z,-0.70
2017-04-20T01:33:07.391Z,-0.70
2017-04-20T01:34:06.497Z,-0.70
2017-04-20T01:35:05.675Z,-0.70
2017-04-20T01:36:04.827Z,-0.70
2017-04-20T01:37:03.995Z,-0.80
2017-04-20T01:38:03.903Z,-0.80
2017-04-20T01:39:04.168Z,-0.80
2017-04-20T01:40:03.335Z,-0.80
2017-04-20T01:41:02.564Z,-0.80
2017-04-20T01:42:01.704Z,-0.80
2017-04-20T01:43:00.871Z,-0.80
2017-04-20T01:44:00.024Z,-0.80
2017-04-20T01:44:59.337Z,-0.80
2017-04-20T01:45:58.540Z,-0.80
2017-04-20T01:46:58.585Z,-0.90
2017-04-20T01:47:57.773Z,-0.80
2017-04-20T01:48:56.917Z,-0.80
2017-04-20T01:49:56.049Z,-0.80
2017-04-20T01:50:55.199Z,-0.80
2017-04-20T01:51:55.139Z,-0.90
2017-04-20T01:52:54.400Z,-0.80
2017-04-20T01:53:53.567Z,-0.80
2017-04-20T01:54:53.523Z,-0.80
2017-04-20T01:55:52.672Z,-0.80
2017-04-20T01:56:51.845Z,-0.80
2017-04-20T01:57:51.053Z,-0.80
2017-04-20T01:58:50.223Z,-0.90
2017-04-20T01:59:50.108Z,-0.90
2017-04-20T02:00:49.264Z,-0.90
2017-04-20T02:01:48.436Z,-0.90
2017-04-20T02:02:47.600Z,-0.80
2017-04-20T02:03:47.487Z,-0.90
2017-04-20T02:04:46.636Z,-0.90
2017-04-20T02:05:45.818Z,-0.90
2017-04-20T02:06:45.104Z,-0.80
2017-04-20T02:07:44.287Z,-0.90
2017-04-20T02:08:43.449Z,-0.80
2017-04-20T02:09:42.593Z,-0.80
2017-04-20T02:10:41.829Z,-0.90
2017-04-20T02:11:41.030Z,-0.90
2017-04-20T02:12:40.332Z,-0.90
2017-04-20T02:13:39.518Z,-0.90
2017-04-20T02:14:38.660Z,-1.00
2017-04-20T02:15:37.836Z,-1.00
2017-04-20T02:16:37.013Z,-0.90
2017-04-20T02:17:36.127Z,-0.90
2017-04-20T02:18:36.049Z,-0.90
2017-04-20T02:19:35.190Z,-0.90
2017-04-20T02:20:34.416Z,-1.00
2017-04-20T02:21:34.354Z,-1.10
2017-04-20T02:22:33.802Z,-1.00
2017-04-20T02:23:33.745Z,-1.10
2017-04-20T02:24:32.944Z,-1.00
2017-04-20T02:25:32.071Z,-1.00
2017-04-20T02:26:31.158Z,-1.00
2017-04-20T02:27:30.312Z,-1.10
2017-04-20T02:28:29.464Z,-1.10
2017-04-20T02:29:29.056Z,-1.10
2017-04-20T02:30:28.223Z,-1.10
2017-04-20T02:31:28.137Z,-1.10
2017-04-20T02:32:27.276Z,-1.10
2017-04-20T02:33:26.420Z,-1.10
2017-04-20T02:34:25.561Z,-1.10
2017-04-20T02:35:25.101Z,-1.10
2017-04-20T02:36:24.275Z,-1.10
2017-04-20T02:37:24.324Z,-1.10
2017-04-20T02:38:23.501Z,-1.10
2017-04-20T02:39:22.657Z,-1.00
2017-04-20T02:40:22.556Z,-1.10
2017-04-20T02:41:21.732Z,-1.10
2017-04-20T02:42:21.765Z,-1.20
2017-04-20T02:43:20.887Z,-1.10
2017-04-20T02:44:20.062Z,-1.10
2017-04-20T02:45:19.352Z,-1.20
2017-04-20T02:46:18.468Z,-1.20
2017-04-20T02:47:17.619Z,-1.20
2017-04-20T02:48:16.762Z,-1.20
2017-04-20T02:49:15.927Z,-1.20
2017-04-20T02:50:15.105Z,-1.20
2017-04-20T02:51:14.257Z,-1.30
2017-04-20T02:52:13.392Z,-1.30
2017-04-20T02:53:12.605Z,-1.20
2017-04-20T02:54:11.783Z,-1.30
2017-04-20T02:55:10.945Z,-1.20
2017-04-20T02:56:10.470Z,-1.30
2017-04-20T02:57:09.632Z,-1.30
2017-04-20T02:58:08.793Z,-1.30
2017-04-20T02:59:07.958Z,-1.30
2017-04-20T03:00:07.875Z,-1.40
2017-04-20T03:01:07.027Z,-1.30
2017-04-20T03:02:06.239Z,-1.30
2017-04-20T03:03:06.172Z,-1.40
2017-04-20T03:04:05.372Z,-1.40
2017-04-20T03:05:04.540Z,-1.40
2017-04-20T03:06:03.692Z,-1.40
2017-04-20T03:07:02.857Z,-1.40
2017-04-20T03:08:02.000Z,-1.40
2017-04-20T03:09:01.164Z,-1.40
2017-04-20T03:10:01.068Z,-1.50
2017-04-20T03:11:00.401Z,-1.40
2017-04-20T03:11:59.585Z,-1.50
2017-04-20T03:12:58.825Z,-1.50
2017-04-20T03:13:57.949Z,-1.50
2017-04-20T03:14:57.097Z,-1.50
2017-04-20T03:15:56.257Z,-1.50
2017-04-20T03:16:55.424Z,-1.60
2017-04-20T03:17:54.580Z,-1.50
2017-04-20T03:18:53.809Z,-1.50
2017-04-20T03:19:53.085Z,-1.50
2017-04-20T03:20:52.263Z,-1.50
2017-04-20T03:21:51.424Z,-1.50
2017-04-20T03:22:51.323Z,-1.50
2017-04-20T03:23:50.465Z,-1.50
2017-04-20T03:24:49.635Z,-1.50
2017-04-20T03:25:48.806Z,-1.50
2017-04-20T03:26:48.024Z,-1.50
2017-04-20T03:27:47.204Z,-1.60
2017-04-20T03:28:46.796Z,-1.60
2017-04-20T03:29:45.924Z,-1.60
2017-04-20T03:30:45.124Z,-1.60
2017-04-20T03:31:44.331Z,-1.60
2017-04-20T03:32:43.556Z,-1.60
2017-04-20T03:33:42.695Z,-1.70
2017-04-20T03:34:42.673Z,-1.80
2017-04-20T03:35:41.827Z,-1.70
2017-04-20T03:36:41.012Z,-1.70
2017-04-20T03:37:40.145Z,-1.70
2017-04-20T03:38:40.627Z,-1.70
2017-04-20T03:39:39.781Z,-1.70
2017-04-20T03:40:38.888Z,-1.70
2017-04-20T03:41:38.054Z,-1.70
2017-04-20T03:42:37.195Z,-1.70
2017-04-20T03:43:36.324Z,-1.70
2017-04-20T03:44:35.919Z,-1.70
2017-04-20T03:45:35.825Z,-1.80
2017-04-20T03:46:35.780Z,-1.80
2017-04-20T03:47:34.960Z,-1.80
2017-04-20T03:48:34.126Z,-1.80
2017-04-20T03:49:33.288Z,-1.80
2017-04-20T03:50:32.593Z,-1.80
2017-04-20T03:51:31.741Z,-1.80
2017-04-20T03:52:30.924Z,-1.80
2017-04-20T03:53:30.089Z,-1.80
2017-04-20T03:54:30.073Z,-1.90
2017-04-20T03:55:29.237Z,-1.80
2017-04-20T03:56:29.160Z,-1.80
2017-04-20T03:57:28.336Z,-1.80
2017-04-20T03:58:28.236Z,-1.90
2017-04-20T03:59:27.429Z,-1.80
2017-04-20T04:00:26.594Z,-1.80
2017-04-20T04:01:25.745Z,-1.80
2017-04-20T04:02:24.941Z,-1.80
2017-04-20T04:03:24.838Z,-1.90
2017-04-20T04:04:24.016Z,-1.90
2017-04-20T04:05:23.195Z,-1.90
2017-04-20T04:06:22.336Z,-1.80
2017-04-20T04:07:21.522Z,-1.80
2017-04-20T04:08:20.671Z,-1.90
2017-04-20T04:09:19.829Z,-1.90
2017-04-20T04:10:19.002Z,-1.90
2017-04-20T04:11:18.233Z,-1.90
2017-04-20T04:12:17.388Z,-1.90
2017-04-20T04:13:16.700Z,-1.90
2017-04-20T04:14:15.884Z,-1.90
2017-04-20T04:15:15.045Z,-1.90
2017-04-20T04:16:14.997Z,-1.90
2017-04-20T04:17:17.040Z,-1.90
2017-04-20T04:18:16.202Z,-1.90
2017-04-20T04:19:15.727Z,-1.90
2017-04-20T04:20:14.907Z,-1.90
2017-04-20T04:21:14.078Z,-1.90
2017-04-20T04:22:13.272Z,-1.90
2017-04-20T04:23:12.586Z,-1.90
2017-04-20T04:24:12.486Z,-2.00
2017-04-20T04:25:11.685Z,-1.90
2017-04-20T04:26:10.864Z,-1.90
2017-04-20T04:27:10.834Z,-2.00
2017-04-20T04:28:10.024Z,-1.90
2017-04-20T04:29:09.209Z,-1.90
2017-04-20T04:30:08.371Z,-1.90
2017-04-20T04:31:07.561Z,-1.90
2017-04-20T04:32:06.712Z,-1.90
2017-04-20T04:33:06.657Z,-1.90
2017-04-20T04:34:11.387Z,-1.90
2017-04-20T04:35:11.298Z,-1.90
2017-04-20T04:36:10.508Z,-1.90
2017-04-20T04:37:09.696Z,-1.90
2017-04-20T04:38:08.916Z,-1.90
2017-04-20T04:39:08.053Z,-1.90
2017-04-20T04:40:07.257Z,-1.90
2017-04-20T04:41:06.436Z,-1.80
2017-04-20T04:42:05.619Z,-1.80
2017-04-20T04:43:04.952Z,-1.80
2017-04-20T04:44:04.182Z,-1.90
2017-04-20T04:45:04.089Z,-1.90
2017-04-20T04:46:04.003Z,-1.80
2017-04-20T04:47:03.161Z,-1.80
2017-04-20T04:48:02.569Z,-1.80
2017-04-20T04:49:01.707Z,-1.80
2017-04-20T04:50:00.992Z,-1.80
2017-04-20T04:51:00.180Z,-1.80
2017-04-20T04:51:59.316Z,-1.70
2017-04-20T04:52:59.216Z,-1.80
2017-04-20T04:53:58.905Z,-1.70
2017-04-20T04:54:58.208Z,-1.70
2017-04-20T04:55:57.357Z,-1.70
2017-04-20T04:56:56.471Z,-1.60
2017-04-20T04:57:55.643Z,-1.60
2017-04-20T04:58:55.572Z,-1.60
2017-04-20T04:59:55.504Z,-1.60
2017-04-20T05:00:54.764Z,-1.50
2017-04-20T05:01:53.944Z,-1.50
2017-04-20T05:02:53.097Z,-1.50
2017-04-20T05:03:52.250Z,-1.50
2017-04-20T05:04:51.436Z,-1.50
2017-04-20T05:05:50.604Z,-1.50
2017-04-20T05:06:49.756Z,-1.40
2017-04-20T05:07:48.908Z,-1.40
2017-04-20T05:08:48.115Z,-1.40
2017-04-20T05:09:47.264Z,-1.40
2017-04-20T05:10:47.189Z,-1.40
2017-04-20T05:11:46.353Z,-1.30
2017-04-20T05:12:45.513Z,-1.20
2017-04-20T05:13:44.717Z,-1.20
2017-04-20T05:14:43.879Z,-1.20
2017-04-20T05:15:43.051Z,-1.10
2017-04-20T05:16:42.256Z,-1.10
2017-04-20T05:17:41.363Z,-1.00
2017-04-20T05:18:40.494Z,-1.00
2017-04-20T05:19:39.644Z,-1.00
2017-04-20T05:20:39.557Z,-1.00
2017-04-20T05:21:38.809Z,-0.90
2017-04-20T05:22:37.961Z,-0.90
2017-04-20T05:23:37.146Z,-0.80
2017-04-20T05:24:36.305Z,-0.80
2017-04-20T05:25:35.453Z,-0.80
2017-04-20T05:26:34.635Z,-0.80
2017-04-20T05:27:33.899Z,-0.70
2017-04-20T05:28:33.061Z,-0.70
2017-04-20T05:29:33.062Z,-0.70
2017-04-20T05:30:32.938Z,-0.70
2017-04-20T05:31:32.145Z,1.40
2017-04-20T05:32:31.373Z,-0.60
2017-04-20T05:33:30.507Z,-0.50
2017-04-20T05:34:29.624Z,-0.50
2017-04-20T05:35:28.784Z,-0.50
2017-04-20T05:36:27.956Z,-0.50
2017-04-20T05:37:27.977Z,-0.50
2017-04-20T05:38:27.156Z,-0.40
2017-04-20T05:39:26.279Z,1.70
2017-04-20T05:40:25.456Z,-0.30
2017-04-20T05:41:25.346Z,-0.30
2017-04-20T05:42:24.504Z,-0.20
2017-04-20T05:43:24.461Z,-0.20
2017-04-20T05:44:23.629Z,-0.10
2017-04-20T05:45:22.839Z,0.00
2017-04-20T05:46:21.965Z,0.00
2017-04-20T05:47:21.890Z,0.00
2017-04-20T05:48:21.796Z,0.10
2017-04-20T05:49:21.334Z,0.20
2017-04-20T05:50:21.259Z,0.20
2017-04-20T05:51:20.417Z,0.30
2017-04-20T05:52:19.760Z,0.30
2017-04-20T05:53:18.933Z,0.40
2017-04-20T05:54:18.145Z,0.50
2017-04-20T05:55:17.329Z,0.50
2017-04-20T05:56:16.560Z,0.60
2017-04-20T05:57:15.726Z,0.60
2017-04-20T05:58:14.928Z,0.60
2017-04-20T05:59:14.382Z,0.70
2017-04-20T06:00:15.391Z,0.60
2017-04-20T06:01:14.692Z,0.70
2017-04-20T06:02:14.081Z,0.80
2017-04-20T06:03:13.597Z,0.80
2017-04-20T06:04:13.003Z,0.80
2017-04-20T06:05:12.340Z,0.80
2017-04-20T06:06:11.865Z,0.80
2017-04-20T06:07:11.321Z,0.90
2017-04-20T06:08:10.693Z,1.00
2017-04-20T06:09:10.103Z,1.00
2017-04-20T06:10:09.452Z,1.10
2017-04-20T06:11:08.831Z,1.10
2017-04-20T06:12:08.185Z,1.10
2017-04-20T06:13:07.641Z,1.10
2017-04-20T06:14:07.018Z,1.20
2017-04-20T06:15:06.325Z,1.20
2017-04-20T06:16:05.568Z,1.20
2017-04-20T06:17:05.081Z,1.30
2017-04-20T06:18:04.503Z,1.30
2017-04-20T06:19:03.994Z,1.30
2017-04-20T06:20:03.657Z,1.40
2017-04-20T06:21:03.193Z,1.40
2017-04-20T06:22:02.580Z,1.50
2017-04-20T06:23:01.789Z,1.60
2017-04-20T06:24:02.063Z,1.50
2017-04-20T06:25:01.390Z,1.70
2017-04-20T06:26:01.081Z,1.70
2017-04-20T06:27:00.460Z,1.80
2017-04-20T06:28:00.645Z,1.80
2017-04-20T06:28:59.906Z,1.80
2017-04-20T06:29:59.209Z,1.90
2017-04-20T06:30:58.562Z,1.90
2017-04-20T06:31:58.309Z,2.00
2017-04-20T06:32:57.544Z,2.00
2017-04-20T06:33:57.128Z,2.00
2017-04-20T06:34:56.394Z,2.10
2017-04-20T06:35:55.903Z,2.10
2017-04-20T06:36:55.176Z,2.20
2017-04-20T06:37:54.485Z,2.20
2017-04-20T06:38:54.163Z,2.20
2017-04-20T06:39:53.563Z,2.30
2017-04-20T06:40:53.083Z,2.30
2017-04-20T06:41:52.387Z,2.40
2017-04-20T06:42:51.994Z,2.40
2017-04-20T06:43:51.306Z,2.50
2017-04-20T06:44:50.873Z,2.50
2017-04-20T06:45:50.126Z,2.60
2017-04-20T06:46:50.167Z,2.60
2017-04-20T06:47:49.384Z,2.70
2017-04-20T06:48:49.964Z,2.80
2017-04-20T06:49:49.506Z,2.80
2017-04-20T06:50:48.989Z,2.80
2017-04-20T06:51:48.188Z,2.90
2017-04-20T06:52:47.526Z,3.00
2017-04-20T06:53:46.732Z,3.00
2017-04-20T06:54:46.002Z,3.00
2017-04-20T06:55:45.269Z,3.20
2017-04-20T06:56:44.562Z,3.30
2017-04-20T06:57:43.780Z,3.30
2017-04-20T06:58:42.961Z,3.30
2017-04-20T06:59:42.213Z,3.40
2017-04-20T07:00:42.257Z,3.40
2017-04-20T07:01:41.545Z,3.50
2017-04-20T07:02:49.655Z,3.50
2017-04-20T07:03:48.928Z,3.50
2017-04-20T07:04:48.345Z,3.50
2017-04-20T07:05:47.539Z,3.60
2017-04-20T07:06:47.433Z,3.50
2017-04-20T07:07:46.604Z,3.70
2017-04-20T07:08:45.812Z,3.70
2017-04-20T07:09:45.230Z,3.80
2017-04-20T07:10:44.477Z,3.90
2017-04-20T07:11:43.748Z,4.00
2017-04-20T07:12:42.895Z,4.00
2017-04-20T07:13:42.039Z,4.10
2017-04-20T07:14:41.205Z,4.10
2017-04-20T07:15:40.362Z,4.20
2017-04-20T07:16:39.520Z,4.20
2017-04-20T07:17:39.417Z,4.20
2017-04-20T07:18:38.581Z,4.30
2017-04-20T07:19:37.724Z,4.30
2017-04-20T07:20:36.882Z,4.40
2017-04-20T07:21:37.104Z,4.40
2017-04-20T07:22:36.988Z,4.40
2017-04-20T07:23:36.103Z,4.50
2017-04-20T07:24:35.267Z,4.50
2017-04-20T07:25:34.785Z,4.50
2017-04-20T07:26:33.933Z,4.60
2017-04-20T07:27:33.114Z,4.60
2017-04-20T07:28:32.259Z,4.60
2017-04-20T07:29:31.419Z,4.70
2017-04-20T07:30:30.568Z,4.70
2017-04-20T07:31:29.713Z,4.70
2017-04-20T07:32:28.857Z,4.90
2017-04-20T07:33:28.016Z,5.00
2017-04-20T07:34:27.901Z,5.00
2017-04-20T07:35:27.007Z,5.10
2017-04-20T07:36:26.657Z,5.00
2017-04-20T07:37:26.585Z,5.10
2017-04-20T07:38:25.757Z,5.20
2017-04-20T07:39:24.925Z,5.30
2017-04-20T07:40:24.068Z,5.40
2017-04-20T07:41:24.019Z,5.30
2017-04-20T07:42:23.959Z,5.30
2017-04-20T07:43:23.088Z,5.50
2017-04-20T07:44:22.248Z,5.50
2017-04-20T07:45:21.361Z,5.60
2017-04-20T07:46:20.516Z,5.70
2017-04-20T07:47:19.676Z,5.80
2017-04-20T07:48:18.889Z,5.80
2017-04-20T07:49:18.024Z,5.90
2017-04-20T07:50:17.949Z,5.90
2017-04-20T07:51:17.116Z,6.00
2017-04-20T07:52:16.299Z,6.10
2017-04-20T07:53:15.892Z,6.10
2017-04-20T07:54:15.053Z,6.10
2017-04-20T07:55:14.308Z,6.10
2017-04-20T07:56:13.461Z,6.10
2017-04-20T07:57:12.632Z,6.10
2017-04-20T07:58:11.844Z,6.20
2017-04-20T07:59:11.781Z,6.20
2017-04-20T08:00:10.923Z,6.20
2017-04-20T08:01:10.068Z,6.20
2017-04-20T08:02:09.240Z,6.20
2017-04-20T08:03:09.028Z,6.20
2017-04-20T08:04:08.280Z,6.30
2017-04-20T08:05:07.704Z,6.40
2017-04-20T08:06:06.886Z,6.50
2017-04-20T08:07:06.064Z,6.60
2017-04-20T08:08:05.985Z,6.70
2017-04-20T08:09:05.396Z,6.80
2017-04-20T08:10:04.525Z,6.90
2017-04-20T08:11:03.701Z,6.90
2017-04-20T08:12:02.820Z,6.80
2017-04-20T08:13:02.738Z,6.70
2017-04-20T08:14:01.931Z,6.80
2017-04-20T08:15:01.148Z,6.70
2017-04-20T08:16:00.308Z,6.70
2017-04-20T08:16:59.476Z,6.80
2017-04-20T08:17:59.396Z,6.80
2017-04-20T08:18:58.525Z,6.90
2017-04-20T08:19:57.696Z,7.00
2017-04-20T08:20:56.888Z,7.00
2017-04-20T08:21:55.985Z,7.00
2017-04-20T08:22:55.125Z,7.00
2017-04-20T08:23:54.273Z,7.00
2017-04-20T08:24:53.460Z,7.10
2017-04-20T08:25:52.626Z,7.10
2017-04-20T08:26:51.769Z,7.20
2017-04-20T08:27:50.919Z,7.20
2017-04-20T08:28:49.997Z,7.30
2017-04-20T08:29:49.169Z,7.30
2017-04-20T08:30:48.333Z,7.40
2017-04-20T08:31:47.484Z,7.40
2017-04-20T08:32:46.670Z,7.50
2017-04-20T08:33:47.112Z,7.40
2017-04-20T08:34:46.283Z,7.30
2017-04-20T08:35:46.124Z,7.30
2017-04-20T08:36:45.309Z,7.50
2017-04-20T08:37:44.532Z,7.40
2017-04-20T08:38:43.653Z,7.40
2017-04-20T08:39:42.964Z,7.40
2017-04-20T08:40:42.113Z,7.50
2017-04-20T08:41:42.000Z,7.50
2017-04-20T08:42:41.129Z,7.50
2017-04-20T08:43:40.308Z,7.50
2017-04-20T08:44:39.425Z,7.60
2017-04-20T08:45:38.579Z,7.70
2017-04-20T08:46:37.726Z,7.70
2017-04-20T08:47:37.089Z,7.70
2017-04-20T08:48:36.220Z,7.70
2017-04-20T08:49:35.378Z,7.80
2017-04-20T08:50:35.463Z,7.90
2017-04-20T08:51:34.577Z,8.00
2017-04-20T08:52:33.771Z,7.90
2017-04-20T08:53:33.215Z,7.80
2017-04-20T08:54:32.340Z,7.80
2017-04-20T08:55:31.723Z,7.80
2017-04-20T08:56:31.665Z,7.90
2017-04-20T08:57:30.826Z,8.00
2017-04-20T08:58:30.050Z,8.10
2017-04-20T08:59:29.238Z,8.00
2017-04-20T09:00:28.465Z,8.10
2017-04-20T09:01:27.640Z,8.10
2017-04-20T09:02:26.786Z,8.00
2017-04-20T09:03:25.921Z,8.00
2017-04-20T09:04:25.120Z,8.10
2017-04-20T09:05:24.276Z,8.20
2017-04-20T09:06:23.439Z,8.30
2017-04-20T09:07:22.584Z,8.30
2017-04-20T09:08:21.709Z,8.30
2017-04-20T09:09:20.997Z,8.30
2017-04-20T09:10:20.162Z,8.30
2017-04-20T09:11:19.326Z,8.30
2017-04-20T09:12:18.543Z,8.20
2017-04-20T09:13:17.697Z,8.10
2017-04-20T09:14:16.911Z,8.20
2017-04-20T09:15:16.381Z,8.20
2017-04-20T09:16:15.565Z,8.20
2017-04-20T09:17:14.764Z,8.30
2017-04-20T09:18:14.068Z,8.30
2017-04-20T09:19:13.526Z,8.30
2017-04-20T09:20:12.633Z,8.20
2017-04-20T09:21:12.569Z,8.10
2017-04-20T09:22:11.701Z,8.10
2017-04-20T09:23:10.885Z,8.20
2017-04-20T09:24:10.100Z,8.20
2017-04-20T09:25:09.232Z,8.20
2017-04-20T09:26:09.137Z,8.20
2017-04-20T09:27:09.081Z,8.10
2017-04-20T09:28:08.253Z,8.20
2017-04-20T09:29:07.411Z,8.30
2017-04-20T09:30:07.329Z,8.40
2017-04-20T09:31:06.535Z,8.60
2017-04-20T09:32:05.841Z,8.60
2017-04-20T09:33:07.688Z,8.60
2017-04-20T09:34:09.515Z,8.70
2017-04-20T09:35:09.086Z,8.70
2017-04-20T09:36:08.797Z,8.70
2017-04-20T09:37:08.444Z,8.70
2017-04-20T09:38:07.951Z,8.70
2017-04-20T09:39:07.170Z,8.70
2017-04-20T09:40:06.465Z,8.70
2017-04-20T09:41:05.709Z,8.80
2017-04-20T09:42:05.283Z,8.80
2017-04-20T09:43:04.626Z,8.80
2017-04-20T09:44:03.929Z,8.80
2017-04-20T09:45:03.825Z,8.70
2017-04-20T09:46:03.715Z,8.70
2017-04-20T09:47:02.962Z,8.80
2017-04-20T09:48:02.088Z,8.90
2017-04-20T09:49:01.308Z,8.90
2017-04-20T09:50:00.493Z,8.90
2017-04-20T09:50:59.636Z,9.00
2017-04-20T09:51:58.792Z,8.90
2017-04-20T09:52:57.920Z,9.00
2017-04-20T09:53:57.031Z,9.00
2017-04-20T09:54:56.233Z,9.10
2017-04-20T09:55:55.492Z,9.20
2017-04-20T09:56:54.648Z,9.20
2017-04-20T09:57:53.817Z,9.20
2017-04-20T09:58:53.047Z,9.30
2017-04-20T09:59:52.204Z,9.30
2017-04-20T10:00:51.341Z,9.30
2017-04-20T10:01:51.245Z,9.00
2017-04-20T10:02:50.415Z,8.90
2017-04-20T10:03:50.035Z,9.10
2017-04-20T10:04:49.171Z,9.10
2017-04-20T10:05:48.323Z,9.10
2017-04-20T10:06:47.511Z,9.10
2017-04-20T10:08:50.468Z,9.20
2017-04-20T10:09:50.414Z,9.20
2017-04-20T10:10:49.574Z,9.30
2017-04-20T10:11:48.730Z,9.40
2017-04-20T10:12:47.840Z,9.40
2017-04-20T10:13:47.202Z,9.30
2017-04-20T10:14:46.336Z,9.50
2017-04-20T10:15:45.521Z,9.60
2017-04-20T10:16:44.669Z,9.60
2017-04-20T10:17:43.799Z,9.50
2017-04-20T10:18:42.912Z,9.60
2017-04-20T10:19:42.048Z,9.60
2017-04-20T10:20:41.192Z,9.60
2017-04-20T10:21:40.386Z,9.60
2017-04-20T10:22:39.549Z,9.70
2017-04-20T10:23:38.702Z,9.70
2017-04-20T10:24:37.904Z,9.90
2017-04-20T10:25:37.112Z,10.00
2017-04-20T10:26:36.234Z,9.90
2017-04-20T10:27:35.409Z,10.00
2017-04-20T10:28:34.581Z,10.10
2017-04-20T10:29:34.460Z,10.20
2017-04-20T10:30:33.604Z,10.20
2017-04-20T10:31:32.772Z,9.90
2017-04-20T10:32:31.952Z,12.00
2017-04-20T10:33:31.236Z,10.10
2017-04-20T10:34:30.387Z,10.10
2017-04-20T10:35:30.332Z,10.10
2017-04-20T10:36:29.534Z,10.10
2017-04-20T10:37:28.701Z,9.90
2017-04-20T10:38:27.889Z,9.80
2017-04-20T10:39:27.040Z,10.00
2017-04-20T10:40:26.736Z,10.20
2017-04-20T10:41:25.885Z,10.20
2017-04-20T10:42:25.776Z,10.20
2017-04-20T10:43:24.919Z,10.40
2017-04-20T10:44:24.133Z,10.50
2017-04-20T10:45:23.252Z,10.70
2017-04-20T10:46:22.448Z,10.80
2017-04-20T10:47:21.569Z,10.90
2017-04-20T10:48:20.740Z,11.00
2017-04-20T10:49:19.867Z,10.70
2017-04-20T10:50:19.007Z,10.50
2017-04-20T10:51:18.160Z,10.50
2017-04-20T10:52:17.377Z,10.60
2017-04-20T10:53:16.539Z,10.80
2017-04-20T10:54:15.658Z,11.10
2017-04-20T10:55:14.941Z,11.20
2017-04-20T10:56:14.107Z,11.30
2017-04-20T10:57:13.377Z,11.30
2017-04-20T10:58:12.509Z,11.40
2017-04-20T10:59:11.653Z,11.10
2017-04-20T11:00:10.848Z,11.00
2017-04-20T11:01:10.064Z,11.10
2017-04-20T11:02:09.264Z,11.00
2017-04-20T11:03:08.439Z,10.90
2017-04-20T11:04:07.664Z,10.70
2017-04-20T11:05:06.827Z,10.40
2017-04-20T11:06:05.998Z,10.50
2017-04-20T11:07:05.178Z,10.60
2017-04-20T11:08:04.400Z,10.80
2017-04-20T11:09:03.585Z,11.00
2017-04-20T11:10:02.745Z,11.20
2017-04-20T11:11:01.889Z,11.20
2017-04-20T11:12:00.984Z,11.30
2017-04-20T11:13:00.173Z,11.60
2017-04-20T11:13:59.356Z,11.70
2017-04-20T11:14:58.615Z,11.60
2017-04-20T11:15:58.640Z,11.40
2017-04-20T11:16:57.822Z,11.50
2017-04-20T11:17:57.745Z,11.60
2017-04-20T11:18:56.936Z,11.90
2017-04-20T11:19:56.227Z,12.10
2017-04-20T11:20:55.375Z,12.10
2017-04-20T11:21:54.600Z,12.40
2017-04-20T11:22:53.768Z,12.70
2017-04-20T11:23:53.722Z,12.40
2017-04-20T11:24:53.120Z,12.00
2017-04-20T11:25:52.285Z,11.80
2017-04-20T11:26:52.157Z,12.00
2017-04-20T11:27:51.324Z,12.50
2017-04-20T11:28:50.508Z,12.60
2017-04-20T11:29:49.720Z,12.70
2017-04-20T11:30:48.903Z,12.50
2017-04-20T11:31:48.104Z,12.60
2017-04-20T11:32:47.270Z,12.80
2017-04-20T11:33:46.517Z,12.80
2017-04-20T11:34:45.749Z,12.80
2017-04-20T11:35:44.997Z,13.00
2017-04-20T11:36:44.163Z,13.00
2017-04-20T11:37:45.375Z,12.90
2017-04-20T11:38:44.552Z,12.90
2017-04-20T11:39:43.707Z,12.80
2017-04-20T11:40:42.966Z,12.50
2017-04-20T11:41:42.155Z,12.70
2017-04-20T11:42:41.313Z,13.00
2017-04-20T11:43:40.581Z,13.20
2017-04-20T11:44:39.748Z,13.20
2017-04-20T11:45:38.885Z,13.60
2017-04-20T11:46:38.834Z,13.60
2017-04-20T11:47:38.027Z,13.70
2017-04-20T11:48:37.243Z,13.70
2017-04-20T11:49:37.182Z,13.70
2017-04-20T11:50:37.129Z,13.70
2017-04-20T11:51:36.569Z,13.60
2017-04-20T11:52:36.913Z,13.50
2017-04-20T11:53:36.087Z,13.20
2017-04-20T11:54:35.289Z,13.70
2017-04-20T11:55:34.526Z,14.00
2017-04-20T11:56:33.828Z,14.20
2017-04-20T11:57:33.383Z,14.20
2017-04-20T11:58:32.584Z,14.20
2017-04-20T11:59:31.769Z,14.30
2017-04-20T12:00:30.964Z,14.20
2017-04-20T12:01:30.140Z,14.10
2017-04-20T12:02:29.307Z,13.90
2017-04-20T12:03:28.547Z,13.90
2017-04-20T12:04:27.726Z,13.90
2017-04-20T12:05:26.885Z,13.70
2017-04-20T12:06:26.045Z,13.50
2017-04-20T12:07:25.191Z,13.80
2017-04-20T12:08:24.372Z,13.80
2017-04-20T12:09:23.691Z,13.80
2017-04-20T12:10:22.885Z,13.80
2017-04-20T12:11:22.037Z,13.20
2017-04-20T12:12:21.164Z,12.90
2017-04-20T12:13:20.409Z,13.10
2017-04-20T12:14:19.604Z,12.80
2017-04-20T12:15:18.765Z,13.10
2017-04-20T12:16:17.919Z,13.60
2017-04-20T12:17:17.299Z,14.10
2017-04-20T12:18:16.646Z,14.30
2017-04-20T12:19:15.888Z,14.60
2017-04-20T12:20:15.129Z,14.90
2017-04-20T12:21:14.388Z,14.60
2017-04-20T12:22:13.561Z,14.60
2017-04-20T12:23:12.728Z,14.90
2017-04-20T12:24:11.869Z,14.40
2017-04-20T12:25:11.356Z,14.80
2017-04-20T12:26:10.558Z,15.40
2017-04-20T12:27:09.720Z,15.90
2017-04-20T12:28:08.877Z,16.70
2017-04-20T12:29:08.051Z,16.80
2017-04-20T12:30:07.963Z,16.90
2017-04-20T12:31:07.456Z,16.30
2017-04-20T12:32:06.643Z,15.80
2017-04-20T12:33:05.823Z,15.70
2017-04-20T12:34:05.014Z,15.90
2017-04-20T12:35:04.229Z,16.00
2017-04-20T12:36:03.433Z,15.90
2017-04-20T12:37:02.619Z,16.00
2017-04-20T12:38:01.789Z,16.00
2017-04-20T12:39:01.696Z,16.00
2017-04-20T12:40:00.901Z,16.60
2017-04-20T12:41:00.189Z,16.80
2017-04-20T12:41:59.310Z,17.20
2017-04-20T12:42:58.482Z,16.90
2017-04-20T12:43:57.804Z,16.80
2017-04-20T12:44:56.952Z,16.90
2017-04-20T12:45:56.525Z,16.70
2017-04-20T12:46:55.619Z,16.40
2017-04-20T12:47:54.857Z,15.80
2017-04-20T12:48:54.051Z,15.80
2017-04-20T12:49:53.206Z,16.00
2017-04-20T12:50:52.379Z,16.50
2017-04-20T12:51:51.580Z,16.40
2017-04-20T12:52:50.737Z,16.50
2017-04-20T12:53:49.924Z,16.80
2017-04-20T12:54:49.060Z,16.80
2017-04-20T12:55:48.982Z,16.60